Time;durP1;ratioP1;P1;durP2;ratioP2;P2;SDS_P1;SDS_P2;PMS_P1;PMS_P2;Temp;Humidity;BMP_temperature;BMP_pressure;BME280_temperature;BME280_humidity;BME280_pressure;Samples;Min_cycle;Max_cycle;Signal;HPM_P1;HPM_P2
2023/01/06 00:00:42;;;;;;;6.53;2.58;;;11.10;99.90;;;;;;5089880;28;20035;-65
2023/01/06 00:03:08;;;;;;;5.97;2.05;;;11.10;99.90;;;;;;5092411;28;20052;-65
2023/01/06 00:05:34;;;;;;;7.50;2.75;;;11.10;99.90;;;;;;5087517;28;20035;-65
2023/01/06 00:07:59;;;;;;;5.80;2.33;;;11.10;99.90;;;;;;5094197;28;20055;-65
2023/01/06 00:10:26;;;;;;;6.68;2.28;;;11.10;99.90;;;;;;5099604;28;20020;-65
2023/01/06 00:12:52;;;;;;;7.60;2.53;;;11.10;99.90;;;;;;5094316;28;20354;-65
2023/01/06 00:15:18;;;;;;;5.55;1.80;;;11.10;99.90;;;;;;5096909;28;20523;-65
2023/01/06 00:17:44;;;;;;;6.47;2.42;;;11.00;99.90;;;;;;5109793;27;20031;-65
2023/01/06 00:20:11;;;;;;;5.70;2.20;;;11.00;99.90;;;;;;5091599;28;20024;-65
2023/01/06 00:22:39;;;;;;;6.57;1.85;;;11.00;99.90;;;;;;5096733;28;20017;-65
2023/01/06 00:25:05;;;;;;;7.65;2.50;;;11.00;99.90;;;;;;5095051;28;20077;-65
2023/01/06 00:27:31;;;;;;;7.18;2.83;;;11.00;99.90;;;;;;5092654;28;20028;-65
2023/01/06 00:29:57;;;;;;;6.90;2.03;;;11.00;99.90;;;;;;5093459;28;20027;-65
2023/01/06 00:32:23;;;;;;;6.75;2.10;;;11.00;99.90;;;;;;5090804;28;20016;-65
2023/01/06 00:34:48;;;;;;;7.15;2.20;;;11.00;99.90;;;;;;5093819;28;20020;-65
2023/01/06 00:37:14;;;;;;;6.85;2.90;;;11.00;99.90;;;;;;5099767;28;20592;-65
2023/01/06 00:39:39;;;;;;;3.90;1.83;;;11.00;99.90;;;;;;5093765;28;20028;-65
2023/01/06 00:42:05;;;;;;;5.03;2.22;;;11.00;99.90;;;;;;5096783;28;20043;-65
2023/01/06 00:44:38;;;;;;;4.93;2.20;;;11.00;99.90;;;;;;5094852;28;20082;-65
2023/01/06 00:47:06;;;;;;;5.25;2.30;;;11.00;99.90;;;;;;5078224;28;20362;-65
2023/01/06 00:49:32;;;;;;;5.13;2.35;;;11.10;99.90;;;;;;5096545;28;20078;-65
2023/01/06 00:51:58;;;;;;;4.13;2.08;;;11.10;99.90;;;;;;5095344;28;20020;-65
2023/01/06 00:54:24;;;;;;;8.15;2.92;;;11.10;99.90;;;;;;5097496;28;20031;-65
2023/01/06 00:56:51;;;;;;;6.50;3.47;;;11.10;99.90;;;;;;5097761;28;20370;-65
2023/01/06 00:59:21;;;;;;;4.88;2.13;;;11.10;99.90;;;;;;5095544;28;20066;-65
2023/01/06 01:01:48;;;;;;;8.45;2.95;;;11.10;99.90;;;;;;5092464;28;20054;-65
2023/01/06 01:04:14;;;;;;;6.80;1.95;;;11.10;99.90;;;;;;5090706;28;20031;-65
2023/01/06 01:06:41;;;;;;;5.85;2.47;;;11.10;99.90;;;;;;5090466;28;20024;-65
2023/01/06 01:09:07;;;;;;;6.03;2.30;;;11.10;99.90;;;;;;5114053;27;20090;-65
2023/01/06 01:14:19;;;;;;;5.65;2.67;;;11.10;99.90;;;;;;5093295;28;20392;-65
2023/01/06 01:16:45;;;;;;;8.70;2.75;;;11.10;99.90;;;;;;5074805;28;20404;-65
2023/01/06 01:19:11;;;;;;;5.13;2.13;;;11.10;99.90;;;;;;5107908;28;20026;-65
2023/01/06 01:21:37;;;;;;;3.67;2.03;;;11.10;99.90;;;;;;5106540;28;20039;-65
2023/01/06 01:24:02;;;;;;;5.32;2.97;;;11.10;99.90;;;;;;5098275;28;20024;-65
2023/01/06 01:26:28;;;;;;;5.05;2.10;;;11.20;99.90;;;;;;5090844;28;20031;-65
2023/01/06 01:28:53;;;;;;;3.40;1.67;;;11.20;99.90;;;;;;5089796;28;20026;-65
2023/01/06 01:31:19;;;;;;;6.72;2.08;;;11.20;99.90;;;;;;5092305;28;20028;-65
2023/01/06 01:33:45;;;;;;;5.40;1.95;;;11.20;99.90;;;;;;5092519;28;20853;-65
2023/01/06 01:36:13;;;;;;;5.78;1.83;;;11.20;99.90;;;;;;5090998;28;20070;-65
2023/01/06 01:38:39;;;;;;;4.80;1.42;;;11.20;99.90;;;;;;5094499;28;20496;-65
2023/01/06 01:41:05;;;;;;;3.72;1.80;;;11.20;99.90;;;;;;5093015;28;20070;-65
2023/01/06 01:43:59;;;;;;;3.92;1.63;;;11.20;99.90;;;;;;5094836;28;20028;-65
2023/01/06 01:46:32;;;;;;;7.88;1.52;;;11.20;99.90;;;;;;5092435;28;20027;-65
2023/01/06 01:49:02;;;;;;;3.05;1.42;;;11.20;99.90;;;;;;5099129;28;20491;-65
2023/01/06 01:51:36;;;;;;;5.03;1.38;;;11.20;99.90;;;;;;5094474;28;20027;-65
2023/01/06 01:54:07;;;;;;;5.38;1.77;;;11.20;99.90;;;;;;5093336;28;20110;-65
2023/01/06 01:56:35;;;;;;;5.55;1.58;;;11.20;99.90;;;;;;5094413;28;20496;-65
2023/01/06 01:59:08;;;;;;;5.57;1.20;;;11.20;99.90;;;;;;5089196;28;20065;-65
2023/01/06 02:01:34;;;;;;;4.82;1.30;;;11.20;99.90;;;;;;5089448;28;20019;-65
2023/01/06 02:04:01;;;;;;;5.60;1.20;;;11.20;99.90;;;;;;5089379;28;20161;-65
2023/01/06 02:06:28;;;;;;;5.10;1.63;;;11.20;99.90;;;;;;5089556;28;20048;-65
2023/01/06 02:09:10;;;;;;;4.45;1.10;;;11.10;99.90;;;;;;5070685;28;20055;-65
2023/01/06 02:11:37;;;;;;;3.20;1.00;;;11.20;99.90;;;;;;5090034;28;20107;-65
2023/01/06 02:14:09;;;;;;;7.47;1.42;;;11.10;99.90;;;;;;5091556;28;20189;-65
2023/01/06 02:17:05;;;;;;;4.53;1.58;;;11.10;99.90;;;;;;5089345;28;20032;-65
2023/01/06 02:19:57;;;;;;;3.53;1.75;;;11.10;99.90;;;;;;5092258;28;20027;-65
2023/01/06 02:23:00;;;;;;;2.58;1.58;;;11.10;99.90;;;;;;5088747;28;20028;-65
2023/01/06 02:25:40;;;;;;;2.55;1.27;;;11.10;99.90;;;;;;5080780;28;20026;-65
2023/01/06 02:28:29;;;;;;;4.38;1.45;;;11.10;99.90;;;;;;5091163;28;20141;-65
2023/01/06 02:31:22;;;;;;;5.60;1.67;;;11.10;99.90;;;;;;5090797;28;20675;-65
2023/01/06 02:33:50;;;;;;;3.03;1.45;;;11.10;99.90;;;;;;5106045;28;20020;-65
2023/01/06 02:36:44;;;;;;;5.38;1.38;;;11.00;99.90;;;;;;5103426;28;20441;-65
2023/01/06 02:39:47;;;;;;;5.70;1.55;;;11.00;99.90;;;;;;5100006;28;20030;-65
2023/01/06 02:42:28;;;;;;;3.88;1.70;;;11.00;99.90;;;;;;5089431;28;20028;-65
2023/01/06 02:45:19;;;;;;;4.30;1.60;;;11.00;99.90;;;;;;5103508;28;20019;-65
2023/01/06 02:48:01;;;;;;;4.63;1.75;;;11.00;99.90;;;;;;5088837;28;20059;-65
2023/01/06 02:50:36;;;;;;;4.13;1.80;;;11.00;99.90;;;;;;5080672;28;20028;-65
2023/01/06 02:53:11;;;;;;;7.45;1.88;;;10.90;99.90;;;;;;5072615;28;20051;-65
2023/01/06 02:55:45;;;;;;;4.40;1.67;;;10.90;99.90;;;;;;5074031;28;20471;-65
2023/01/06 02:58:35;;;;;;;4.82;1.52;;;10.90;99.90;;;;;;5091639;28;20049;-65
2023/01/06 03:01:12;;;;;;;3.03;1.50;;;10.90;99.90;;;;;;5091140;28;20480;-65
2023/01/06 03:03:42;;;;;;;4.38;1.40;;;10.90;99.90;;;;;;5090786;28;20035;-65
2023/01/06 03:06:17;;;;;;;7.80;2.60;;;10.90;99.90;;;;;;5069896;28;20024;-65
2023/01/06 03:08:49;;;;;;;9.73;1.90;;;10.90;99.90;;;;;;5091370;28;20048;-65
2023/01/06 03:11:15;;;;;;;3.85;1.30;;;10.90;99.90;;;;;;5112006;27;20339;-65
2023/01/06 03:13:53;;;;;;;6.38;1.40;;;10.90;99.90;;;;;;5093049;28;20028;-65
2023/01/06 03:16:19;;;;;;;3.05;1.20;;;11.00;99.90;;;;;;5079663;28;20031;-65
2023/01/06 03:18:48;;;;;;;4.22;1.20;;;10.90;99.90;;;;;;5089519;28;20485;-65
2023/01/06 03:21:18;;;;;;;3.90;1.00;;;11.00;99.90;;;;;;5072598;28;20431;-65
2023/01/06 03:23:44;;;;;;;5.95;1.15;;;11.00;99.90;;;;;;5074968;28;20024;-65
2023/01/06 03:26:10;;;;;;;6.10;1.33;;;11.00;99.90;;;;;;5070593;28;20028;-65
2023/01/06 03:28:36;;;;;;;4.45;0.80;;;11.00;99.90;;;;;;5090567;28;20043;-65
2023/01/06 03:31:36;;;;;;;4.00;0.80;;;11.00;99.90;;;;;;5088059;28;20073;-65
2023/01/06 03:34:36;;;;;;;5.07;0.88;;;11.00;99.90;;;;;;5052891;28;20032;-65
2023/01/06 03:37:20;;;;;;;;;;;11.00;99.90;;;;;;5072119;28;20024;-65
2023/01/06 03:40:07;;;;;;;3.72;0.98;;;10.90;99.90;;;;;;5109247;27;19950;-65
2023/01/06 03:45:37;;;;;;;4.88;0.90;;;10.90;99.90;;;;;;5092257;28;20077;-65
2023/01/06 03:48:08;;;;;;;5.25;0.93;;;10.90;99.90;;;;;;5087843;28;20088;-65
2023/01/06 03:51:06;;;;;;;2.65;0.70;;;10.90;99.90;;;;;;5081115;28;20016;-65
2023/01/06 03:53:40;;;;;;;3.67;0.80;;;11.00;99.90;;;;;;5087138;28;20042;-65
2023/01/06 03:56:29;;;;;;;5.25;1.05;;;11.00;99.90;;;;;;5090841;28;20485;-65
2023/01/06 03:58:58;;;;;;;4.25;0.88;;;11.00;99.90;;;;;;5095888;28;20081;-65
2023/01/06 04:01:25;;;;;;;4.53;1.05;;;11.00;99.90;;;;;;5090439;28;20031;-65
2023/01/06 04:03:53;;;;;;;4.60;0.73;;;11.00;99.90;;;;;;5095701;28;20090;-65
2023/01/06 04:06:19;;;;;;;4.68;0.88;;;11.00;99.90;;;;;;5088332;28;20401;-65
2023/01/06 04:08:44;;;;;;;3.60;0.60;;;11.00;99.90;;;;;;5087314;28;20044;-65
2023/01/06 04:12:37;;;;;;;3.47;0.50;;;11.00;99.90;;;;;;5089958;28;20032;-65
2023/01/06 04:13:56;;;;;;;2.03;0.55;;;11.00;99.90;;;;;;5092902;28;20023;-65
2023/01/06 04:16:21;;;;;;;2.13;0.70;;;11.00;99.90;;;;;;5087375;28;20070;-65
2023/01/06 04:18:47;;;;;;;2.42;0.70;;;11.00;99.90;;;;;;5092209;28;20401;-65
2023/01/06 04:21:13;;;;;;;3.40;1.08;;;11.00;99.90;;;;;;5087204;28;20028;-65
2023/01/06 04:23:38;;;;;;;4.25;1.35;;;10.90;99.90;;;;;;5069565;28;20042;-65
2023/01/06 04:26:04;;;;;;;4.35;0.82;;;11.00;99.90;;;;;;5069767;28;20024;-65
2023/01/06 04:28:29;;;;;;;3.08;0.65;;;11.00;99.90;;;;;;5070795;28;20118;-65
2023/01/06 04:30:59;;;;;;;5.07;0.90;;;11.00;99.90;;;;;;5089715;28;20024;-65
2023/01/06 04:33:26;;;;;;;2.17;0.80;;;11.00;99.90;;;;;;5090326;28;20039;-65
2023/01/06 04:35:51;;;;;;;3.67;1.35;;;11.00;99.90;;;;;;5089324;28;20028;-64
2023/01/06 04:38:17;;;;;;;4.15;0.70;;;11.00;99.90;;;;;;5079970;28;20031;-64
2023/01/06 04:40:43;;;;;;;3.13;0.88;;;11.00;99.90;;;;;;5078470;28;20545;-65
2023/01/06 04:43:14;;;;;;;2.28;0.90;;;11.00;99.90;;;;;;5089813;28;20188;-64
2023/01/06 04:45:41;;;;;;;3.35;1.13;;;11.00;99.90;;;;;;5089809;28;20066;-64
2023/01/06 04:48:07;;;;;;;3.85;0.80;;;11.00;99.90;;;;;;5087189;28;20028;-64
2023/01/06 04:50:33;;;;;;;5.28;0.85;;;11.00;99.90;;;;;;5092807;28;20031;-65
2023/01/06 04:52:58;;;;;;;5.82;0.82;;;11.00;99.90;;;;;;5089878;28;20023;-65
2023/01/06 04:55:24;;;;;;;2.75;0.70;;;11.00;99.90;;;;;;5072261;28;20092;-65
2023/01/06 04:57:50;;;;;;;2.55;0.68;;;11.00;99.90;;;;;;5091736;28;20111;-64
2023/01/06 05:00:16;;;;;;;4.45;0.82;;;11.00;99.90;;;;;;5082919;28;20387;-64
2023/01/06 05:02:42;;;;;;;4.13;0.70;;;11.00;99.90;;;;;;5093176;28;20028;-64
2023/01/06 05:05:08;;;;;;;5.53;1.17;;;11.00;99.90;;;;;;5093458;28;20035;-65
2023/01/06 05:07:33;;;;;;;2.83;0.85;;;11.10;99.90;;;;;;5078560;28;20081;-64
2023/01/06 05:09:59;;;;;;;3.33;0.65;;;11.10;99.90;;;;;;5095388;28;20020;-64
2023/01/06 05:12:24;;;;;;;3.15;0.70;;;11.10;99.90;;;;;;5112635;27;20031;-64
2023/01/06 05:14:50;;;;;;;3.42;0.73;;;11.10;99.90;;;;;;5090307;28;20028;-64
2023/01/06 05:17:16;;;;;;;3.85;1.45;;;11.10;99.90;;;;;;5092798;28;20055;-64
2023/01/06 05:19:43;;;;;;;3.30;0.68;;;11.10;99.90;;;;;;5074712;28;20099;-65
2023/01/06 05:22:10;;;;;;;3.40;0.60;;;11.10;99.90;;;;;;5077031;28;20024;-64
2023/01/06 05:24:35;;;;;;;3.35;0.70;;;11.10;99.90;;;;;;5093118;28;20091;-65
2023/01/06 05:27:01;;;;;;;1.42;0.55;;;11.10;99.90;;;;;;5095925;28;20054;-65
2023/01/06 05:29:27;;;;;;;2.95;0.60;;;11.10;99.90;;;;;;5111083;27;20495;-65
2023/01/06 05:31:52;;;;;;;1.45;0.65;;;11.10;99.90;;;;;;5090053;28;20020;-65
2023/01/06 05:34:18;;;;;;;2.65;0.80;;;11.10;99.90;;;;;;5089939;28;20016;-65
2023/01/06 05:36:43;;;;;;;2.25;0.60;;;11.10;99.90;;;;;;5089817;28;20028;-64
2023/01/06 05:39:09;;;;;;;5.13;0.50;;;11.10;99.90;;;;;;5089846;28;20328;-64
2023/01/06 05:41:34;;;;;;;3.28;0.70;;;11.20;99.90;;;;;;5092548;28;20032;-65
2023/01/06 05:44:00;;;;;;;1.42;0.40;;;11.10;99.90;;;;;;5092159;28;20055;-65
2023/01/06 05:46:25;;;;;;;1.92;0.70;;;11.20;99.90;;;;;;5093698;28;20031;-64
2023/01/06 05:48:51;;;;;;;3.30;0.60;;;11.20;99.90;;;;;;5098047;28;20115;-64
2023/01/06 05:51:16;;;;;;;1.90;0.52;;;11.20;99.90;;;;;;5089594;28;20097;-64
2023/01/06 05:53:44;;;;;;;1.50;0.60;;;11.20;99.90;;;;;;5089599;28;20085;-65
2023/01/06 05:56:13;;;;;;;1.95;0.60;;;11.20;99.90;;;;;;5095841;28;20031;-65
2023/01/06 05:58:39;;;;;;;1.40;0.50;;;11.20;99.90;;;;;;5096526;28;20032;-65
2023/01/06 06:01:13;;;;;;;1.00;0.60;;;11.20;99.90;;;;;;5090714;28;20035;-65
2023/01/06 06:03:38;;;;;;;1.77;0.47;;;11.20;99.90;;;;;;5092281;28;20393;-66
2023/01/06 06:06:05;;;;;;;1.13;0.40;;;11.20;99.90;;;;;;5091883;28;20024;-65
2023/01/06 06:08:31;;;;;;;2.40;0.50;;;11.30;99.90;;;;;;5094706;28;20040;-66
2023/01/06 06:11:11;;;;;;;2.60;0.50;;;11.30;99.90;;;;;;5094114;28;20032;-65
2023/01/06 06:13:37;;;;;;;1.85;0.40;;;11.30;99.90;;;;;;5075556;28;20111;-65
2023/01/06 06:16:08;;;;;;;1.88;0.50;;;11.10;99.90;;;;;;5090776;28;20095;-65
2023/01/06 06:18:39;;;;;;;1.98;0.57;;;11.10;99.90;;;;;;5089455;28;20439;-66
2023/01/06 06:21:05;;;;;;;0.80;0.40;;;11.00;99.90;;;;;;5070335;28;20567;-65
2023/01/06 06:23:31;;;;;;;5.57;0.75;;;10.90;99.90;;;;;;5091881;28;20060;-66
2023/01/06 06:25:56;;;;;;;1.35;0.65;;;10.90;99.90;;;;;;5094734;28;20522;-65
2023/01/06 06:28:22;;;;;;;2.55;0.60;;;10.90;99.90;;;;;;5093380;28;20016;-65
2023/01/06 06:30:48;;;;;;;1.38;0.60;;;10.90;99.90;;;;;;5097170;28;20571;-65
2023/01/06 06:33:13;;;;;;;1.98;0.70;;;10.90;99.90;;;;;;5094353;28;20517;-65
2023/01/06 06:35:39;;;;;;;1.67;0.77;;;10.90;99.90;;;;;;5073333;28;20118;-66
2023/01/06 06:38:04;;;;;;;1.60;0.70;;;10.90;99.90;;;;;;5091542;28;20392;-65
2023/01/06 06:40:30;;;;;;;3.85;0.70;;;11.00;99.90;;;;;;5091015;28;20064;-65
2023/01/06 06:42:56;;;;;;;2.22;0.77;;;11.00;99.90;;;;;;5097292;28;20016;-65
2023/01/06 06:45:22;;;;;;;2.22;0.60;;;11.00;99.90;;;;;;5077578;28;20058;-65
2023/01/06 06:47:47;;;;;;;1.20;0.50;;;11.00;99.90;;;;;;5094093;28;20028;-65
2023/01/06 06:50:13;;;;;;;2.35;0.65;;;11.10;99.90;;;;;;5094954;28;20392;-66
2023/01/06 06:52:38;;;;;;;1.48;0.60;;;11.10;99.90;;;;;;5103782;28;20031;-65
2023/01/06 06:55:05;;;;;;;2.25;0.57;;;11.10;99.90;;;;;;5108152;28;20103;-65
2023/01/06 06:57:30;;;;;;;1.95;0.60;;;11.10;99.90;;;;;;5099068;28;20027;-66
2023/01/06 06:59:56;;;;;;;2.78;0.50;;;11.10;99.90;;;;;;5099056;28;20389;-65
2023/01/06 07:02:21;;;;;;;1.10;0.43;;;11.10;99.90;;;;;;5092442;28;20492;-66
2023/01/06 07:04:47;;;;;;;2.72;0.60;;;11.10;99.90;;;;;;5091767;28;20032;-66
2023/01/06 07:07:12;;;;;;;0.93;0.60;;;11.10;99.90;;;;;;5105603;28;20036;-65
2023/01/06 07:09:38;;;;;;;1.45;0.60;;;11.10;99.90;;;;;;5104954;28;20481;-66
2023/01/06 07:12:05;;;;;;;2.10;0.80;;;11.00;99.90;;;;;;5124208;27;20054;-66
2023/01/06 07:14:30;;;;;;;1.13;0.63;;;11.00;99.90;;;;;;5078598;28;20420;-66
2023/01/06 07:17:00;;;;;;;2.08;1.08;;;11.00;99.90;;;;;;5090606;28;20035;-65
2023/01/06 07:19:26;;;;;;;1.40;0.90;;;10.90;99.90;;;;;;5104007;28;20031;-65
2023/01/06 07:21:51;;;;;;;2.22;0.80;;;10.90;99.90;;;;;;5109185;28;20545;-66
2023/01/06 07:24:17;;;;;;;2.72;0.80;;;10.90;99.90;;;;;;5096867;28;20025;-66
2023/01/06 07:26:42;;;;;;;2.47;1.55;;;10.90;99.90;;;;;;5104794;28;20020;-66
2023/01/06 07:29:08;;;;;;;1.65;0.88;;;10.90;99.90;;;;;;5091594;28;20024;-66
2023/01/06 07:31:33;;;;;;;1.83;0.80;;;10.80;99.90;;;;;;5104805;28;20127;-65
2023/01/06 07:33:59;;;;;;;2.00;1.10;;;10.80;99.90;;;;;;5091957;28;20028;-65
2023/01/06 07:36:24;;;;;;;3.13;1.10;;;10.80;99.90;;;;;;5090950;28;20042;-65
2023/01/06 07:38:50;;;;;;;3.53;1.75;;;10.80;99.90;;;;;;5104192;28;20061;-66
2023/01/06 07:41:16;;;;;;;2.75;1.33;;;10.80;99.90;;;;;;5092022;28;20028;-66
2023/01/06 07:43:41;;;;;;;2.65;1.20;;;10.80;99.90;;;;;;5107742;28;20145;-66
2023/01/06 07:46:08;;;;;;;2.47;1.30;;;10.80;99.90;;;;;;5101589;28;20095;-65
2023/01/06 07:48:33;;;;;;;4.00;1.48;;;10.80;99.90;;;;;;5091480;28;20526;-65
2023/01/06 07:50:59;;;;;;;5.22;2.58;;;10.80;99.90;;;;;;5091490;28;20035;-65
2023/01/06 07:53:24;;;;;;;3.85;1.98;;;10.80;99.90;;;;;;5091034;28;20500;-65
2023/01/06 07:55:53;;;;;;;1.80;1.70;;;10.70;99.90;;;;;;5092002;28;20469;-65
2023/01/06 07:58:20;;;;;;;3.42;2.08;;;10.70;99.90;;;;;;5096133;28;20026;-66
2023/01/06 08:00:45;;;;;;;3.42;2.60;;;10.70;99.90;;;;;;5110456;28;20035;-66
2023/01/06 08:03:11;;;;;;;5.07;2.50;;;10.70;99.90;;;;;;5105751;28;20042;-65
2023/01/06 08:05:37;;;;;;;3.38;3.08;;;10.70;99.90;;;;;;5099082;28;20052;-65
2023/01/06 08:08:03;;;;;;;3.25;2.95;;;10.70;99.90;;;;;;5073201;28;20044;-65
2023/01/06 08:10:29;;;;;;;4.18;3.47;;;10.70;99.90;;;;;;5108825;28;20020;-65
2023/01/06 08:12:54;;;;;;;4.15;3.45;;;10.70;99.90;;;;;;5100243;28;20396;-65
2023/01/06 08:15:20;;;;;;;3.95;3.63;;;10.70;99.90;;;;;;5077830;28;20103;-66
2023/01/06 08:17:45;;;;;;;5.35;3.88;;;10.70;99.90;;;;;;5091331;28;20388;-65
2023/01/06 08:20:11;;;;;;;3.65;3.35;;;10.80;99.90;;;;;;5096041;28;20099;-66
2023/01/06 08:22:36;;;;;;;4.18;3.70;;;10.80;99.90;;;;;;5091919;28;20081;-66
2023/01/06 08:25:02;;;;;;;5.65;4.18;;;10.80;99.90;;;;;;5105402;28;20020;-66
2023/01/06 08:27:27;;;;;;;4.85;3.70;;;10.90;99.90;;;;;;5082128;28;20020;-65
2023/01/06 08:29:54;;;;;;;5.68;4.30;;;10.90;99.90;;;;;;5097238;28;20015;-66
2023/01/06 08:32:20;;;;;;;3.75;3.45;;;10.90;99.90;;;;;;5114904;28;20266;-66
2023/01/06 08:34:45;;;;;;;4.10;3.70;;;11.00;99.90;;;;;;5094690;28;20027;-65
2023/01/06 08:37:11;;;;;;;4.80;3.85;;;11.00;99.90;;;;;;5103106;28;20028;-65
2023/01/06 08:39:36;;;;;;;4.85;4.18;;;11.00;99.90;;;;;;5106699;28;20024;-65
2023/01/06 08:42:02;;;;;;;4.97;4.47;;;11.00;99.90;;;;;;5094471;28;20137;-65
2023/01/06 08:44:27;;;;;;;4.57;3.45;;;11.00;99.90;;;;;;5095070;28;20016;-65
2023/01/06 08:46:53;;;;;;;4.10;3.25;;;11.00;99.90;;;;;;5097984;28;20020;-65
2023/01/06 08:49:18;;;;;;;3.80;3.40;;;11.10;99.90;;;;;;5106769;28;20100;-65
2023/01/06 08:51:44;;;;;;;5.25;4.00;;;11.10;99.90;;;;;;5109314;28;20027;-65
2023/01/06 08:54:09;;;;;;;6.15;4.50;;;11.10;99.90;;;;;;5105999;27;20034;-65
2023/01/06 08:56:35;;;;;;;4.63;4.22;;;11.00;99.90;;;;;;5110870;28;20029;-66
2023/01/06 08:59:03;;;;;;;4.82;3.63;;;11.10;99.90;;;;;;5095658;28;20043;-65
2023/01/06 09:01:31;;;;;;;3.92;3.42;;;11.00;99.90;;;;;;5107320;28;20110;-66
2023/01/06 09:03:58;;;;;;;4.60;3.67;;;11.10;99.90;;;;;;5080670;28;20020;-66
2023/01/06 09:06:24;;;;;;;5.68;4.65;;;11.10;99.90;;;;;;5108858;28;20020;-65
2023/01/06 09:08:49;;;;;;;5.65;4.35;;;11.10;99.90;;;;;;5100867;28;20047;-65
2023/01/06 09:11:16;;;;;;;4.88;4.20;;;11.10;99.90;;;;;;5091239;28;20119;-65
2023/01/06 09:13:42;;;;;;;4.57;3.65;;;11.10;99.90;;;;;;5113849;28;20020;-65
2023/01/06 09:16:09;;;;;;;4.07;3.53;;;11.10;99.90;;;;;;5110422;28;20016;-65
2023/01/06 09:18:36;;;;;;;3.90;3.58;;;11.10;99.90;;;;;;5110988;28;20114;-65
2023/01/06 09:21:01;;;;;;;4.85;3.58;;;11.10;99.90;;;;;;5106865;28;20019;-66
2023/01/06 09:23:28;;;;;;;4.13;3.47;;;11.20;99.90;;;;;;5089029;28;20023;-65
2023/01/06 09:25:54;;;;;;;5.97;4.10;;;11.20;99.90;;;;;;5091805;28;20027;-66
2023/01/06 09:28:20;;;;;;;4.18;3.80;;;11.20;99.90;;;;;;5102583;28;20020;-65
2023/01/06 09:30:47;;;;;;;4.35;3.90;;;11.30;99.90;;;;;;5091725;28;20028;-65
2023/01/06 09:33:13;;;;;;;5.40;3.10;;;11.40;99.90;;;;;;5110824;28;20011;-65
2023/01/06 09:35:39;;;;;;;6.43;3.58;;;11.40;99.90;;;;;;5112326;28;20015;-65
2023/01/06 09:38:04;;;;;;;3.88;2.72;;;11.40;99.90;;;;;;5107795;28;20430;-66
2023/01/06 09:41:08;;;;;;;3.25;2.30;;;11.40;99.90;;;;;;5090190;28;20062;-66
2023/01/06 09:44:00;;;;;;;3.53;1.88;;;11.40;99.90;;;;;;5100437;28;20036;-66
2023/01/06 09:46:30;;;;;;;5.13;1.80;;;11.50;99.90;;;;;;5085718;28;20020;-65
2023/01/06 09:49:26;;;;;;;3.60;1.40;;;11.50;99.90;;;;;;5093779;28;20073;-66
2023/01/06 09:52:02;;;;;;;2.65;1.30;;;11.60;99.90;;;;;;5089830;27;20034;-65
2023/01/06 09:54:40;;;;;;;2.92;1.35;;;11.60;99.90;;;;;;5106356;28;20023;-65
2023/01/06 09:57:14;;;;;;;4.18;1.02;;;11.60;99.90;;;;;;5093883;28;20032;-66
2023/01/06 09:59:44;;;;;;;3.83;1.65;;;11.80;99.90;;;;;;5103828;28;20024;-66
2023/01/06 10:02:28;;;;;;;4.43;1.30;;;11.90;99.90;;;;;;5074979;28;20032;-65
2023/01/06 10:04:54;;;;;;;4.53;0.80;;;12.10;99.90;;;;;;5094562;28;20027;-66
2023/01/06 10:07:53;;;;;;;6.03;1.08;;;12.50;99.90;;;;;;5100222;28;20040;-65
2023/01/06 10:10:38;;;;;;;7.40;1.13;;;13.00;99.90;;;;;;5093298;28;20020;-66
2023/01/06 10:13:31;;;;;;;4.25;1.00;;;13.20;99.90;;;;;;5093683;27;20019;-65
2023/01/06 10:16:11;;;;;;;3.38;0.80;;;13.40;99.90;;;;;;5090805;27;20026;-65
2023/01/06 10:19:04;;;;;;;2.83;0.60;;;13.70;99.90;;;;;;5099939;28;20024;-65
2023/01/06 10:21:43;;;;;;;4.07;0.85;;;14.10;99.90;;;;;;5102795;28;20024;-65
2023/01/06 10:24:23;;;;;;;3.40;0.80;;;14.80;99.90;;;;;;5106338;28;20031;-65
2023/01/06 10:27:20;;;;;;;4.50;0.85;;;15.50;99.90;;;;;;5090152;28;20024;-65
2023/01/06 10:29:47;;;;;;;6.78;0.70;;;16.00;99.90;;;;;;5101226;28;20091;-65
2023/01/06 10:32:15;;;;;;;3.95;0.70;;;16.00;99.90;;;;;;5106093;28;20023;-65
2023/01/06 10:34:46;;;;;;;3.88;0.70;;;16.00;99.90;;;;;;5094681;28;20027;-65
2023/01/06 10:37:24;;;;;;;2.85;0.82;;;16.20;99.90;;;;;;5093935;28;20020;-65
2023/01/06 10:40:02;;;;;;;3.78;0.50;;;16.40;99.90;;;;;;5095645;28;20027;-65
2023/01/06 10:42:56;;;;;;;3.90;0.60;;;16.50;99.90;;;;;;5088466;28;20392;-65
2023/01/06 10:45:22;;;;;;;3.03;0.60;;;17.00;99.90;;;;;;5108852;28;20019;-65
2023/01/06 10:47:49;;;;;;;4.47;1.10;;;17.10;99.90;;;;;;5109581;28;20026;-65
2023/01/06 10:50:16;;;;;;;3.30;0.63;;;16.90;99.70;;;;;;5108417;28;20031;-66
2023/01/06 10:52:44;;;;;;;2.78;0.60;;;16.90;99.30;;;;;;5089514;28;20070;-65
2023/01/06 10:55:38;;;;;;;2.17;0.52;;;16.90;98.60;;;;;;5108038;28;20062;-66
2023/01/06 10:58:39;;;;;;;2.45;0.40;;;17.00;98.20;;;;;;5107159;28;20039;-65
2023/01/06 11:01:15;;;;;;;2.13;0.60;;;17.30;97.70;;;;;;5048246;28;20392;-65
2023/01/06 11:03:43;;;;;;;3.35;0.63;;;17.70;96.80;;;;;;5103200;28;20028;-65
2023/01/06 11:06:24;;;;;;;3.90;0.80;;;17.90;96.40;;;;;;5101273;28;20024;-65
2023/01/06 11:08:49;;;;;;;5.15;0.70;;;17.90;95.80;;;;;;5103774;28;20051;-65
2023/01/06 11:11:17;;;;;;;8.80;1.15;;;17.80;95.60;;;;;;5107209;28;20043;-66
2023/01/06 11:13:50;;;;;;;3.10;0.50;;;17.60;94.90;;;;;;5101457;28;20035;-66
2023/01/06 11:16:24;;;;;;;3.60;0.70;;;17.50;94.90;;;;;;5098851;28;20021;-66
2023/01/06 11:19:12;;;;;;;3.00;0.60;;;17.60;95.00;;;;;;5106890;28;20019;-65
2023/01/06 11:21:45;;;;;;;2.53;0.63;;;17.90;94.30;;;;;;5100210;28;20058;-65
2023/01/06 11:24:20;;;;;;;2.47;0.88;;;18.50;93.80;;;;;;5105553;28;20507;-65
2023/01/06 11:27:00;;;;;;;3.42;0.68;;;18.80;92.90;;;;;;5106442;28;20435;-66
2023/01/06 11:29:29;;;;;;;3.75;0.70;;;19.00;92.10;;;;;;5109239;28;20034;-65
2023/01/06 11:31:57;;;;;;;3.53;1.13;;;19.00;91.70;;;;;;5099920;28;20027;-66
2023/01/06 11:34:26;;;;;;;2.33;0.50;;;19.20;91.10;;;;;;5108364;28;20036;-65
2023/01/06 11:36:52;;;;;;;2.80;0.50;;;19.40;90.50;;;;;;5111027;28;20019;-65
2023/01/06 11:39:30;;;;;;;1.77;0.50;;;19.60;88.50;;;;;;5103861;28;20060;-65
2023/01/06 11:42:01;;;;;;;1.17;0.40;;;19.70;83.60;;;;;;5105145;28;20035;-65
2023/01/06 11:44:32;;;;;;;1.27;0.40;;;19.40;82.10;;;;;;5107587;28;20106;-65
2023/01/06 11:47:12;;;;;;;1.60;0.40;;;19.10;80.70;;;;;;5086011;28;20020;-66
2023/01/06 11:49:46;;;;;;;2.10;0.40;;;18.90;81.40;;;;;;5107524;28;20016;-65
2023/01/06 11:52:30;;;;;;;1.52;0.30;;;18.80;80.90;;;;;;5105888;28;20019;-66
2023/01/06 11:55:02;;;;;;;2.70;0.90;;;18.90;81.50;;;;;;5106705;28;20016;-66
2023/01/06 11:57:53;;;;;;;1.65;0.55;;;19.70;81.10;;;;;;5089910;28;20472;-66
2023/01/06 12:00:32;;;;;;;1.30;0.30;;;20.70;78.30;;;;;;5106392;28;20024;-65
2023/01/06 12:03:14;;;;;;;3.25;0.70;;;21.50;76.00;;;;;;5109602;28;20030;-65
2023/01/06 12:05:40;;;;;;;1.35;0.47;;;21.80;71.60;;;;;;5115158;27;20028;-65
2023/01/06 12:08:14;;;;;;;1.20;0.40;;;21.60;69.40;;;;;;5111815;27;20046;-65
2023/01/06 12:10:44;;;;;;;1.65;0.57;;;21.40;69.70;;;;;;5112003;28;20014;-65
2023/01/06 12:13:13;;;;;;;1.90;0.40;;;21.30;70.00;;;;;;5114306;28;20512;-65
2023/01/06 12:15:41;;;;;;;1.15;0.40;;;21.70;69.00;;;;;;5109647;28;20036;-65
2023/01/06 12:18:15;;;;;;;1.65;0.40;;;22.30;65.70;;;;;;5105170;28;20073;-65
2023/01/06 12:20:46;;;;;;;2.00;0.30;;;23.10;61.80;;;;;;5112532;28;20315;-66
2023/01/06 12:23:28;;;;;;;2.17;0.57;;;24.10;60.30;;;;;;5116593;28;20034;-65
2023/01/06 12:25:59;;;;;;;0.80;0.30;;;25.30;58.30;;;;;;5095553;28;20438;-66
2023/01/06 12:28:34;;;;;;;1.15;0.40;;;26.40;55.00;;;;;;5114837;28;20016;-66
2023/01/06 12:31:15;;;;;;;1.83;0.50;;;26.00;50.60;;;;;;5112275;28;20055;-66
2023/01/06 12:34:09;;;;;;;1.55;0.40;;;25.90;51.50;;;;;;5114865;28;20023;-65
2023/01/06 12:36:46;;;;;;;2.50;0.60;;;26.20;52.10;;;;;;5113201;28;20016;-65
2023/01/06 12:39:19;;;;;;;1.73;0.30;;;27.00;51.00;;;;;;5113469;28;20019;-66
2023/01/06 12:41:54;;;;;;;2.20;0.70;;;27.60;49.70;;;;;;5115424;28;20027;-65
2023/01/06 12:44:49;;;;;;;1.45;0.40;;;28.10;47.30;;;;;;5116839;28;20027;-66
2023/01/06 12:47:29;;;;;;;1.02;0.50;;;28.40;47.50;;;;;;5105917;28;20031;-66
2023/01/06 12:50:01;;;;;;;1.23;0.40;;;28.80;45.60;;;;;;5109570;28;20076;-65
2023/01/06 12:52:37;;;;;;;1.73;0.93;;;28.80;43.70;;;;;;5115284;28;20080;-66
2023/01/06 12:55:03;;;;;;;1.48;0.95;;;29.10;44.80;;;;;;5110391;28;20024;-66
2023/01/06 12:58:05;;;;;;;1.77;0.47;;;29.60;45.30;;;;;;5113831;28;20098;-66
2023/01/06 13:00:41;;;;;;;2.90;1.02;;;29.10;44.00;;;;;;5115948;28;20512;-66
2023/01/06 13:03:19;;;;;;;1.48;0.35;;;28.50;43.90;;;;;;5113091;28;20020;-66
2023/01/06 13:06:06;;;;;;;1.95;0.50;;;28.00;44.80;;;;;;5090068;28;20033;-66
2023/01/06 13:09:02;;;;;;;2.45;0.60;;;27.40;44.90;;;;;;5115260;28;20050;-65
2023/01/06 13:11:42;;;;;;;1.10;0.50;;;26.80;45.90;;;;;;5115533;27;20072;-65
2023/01/06 13:14:22;;;;;;;2.08;0.50;;;26.10;46.60;;;;;;5110174;28;20012;-66